createdAt,value
2019-01-24T00:00:21.572Z,48.53
2019-01-24T00:02:49.119Z,54.10
2019-01-24T00:05:16.704Z,54.27
2019-01-24T00:07:44.257Z,53.67
2019-01-24T00:10:13.504Z,50.40
2019-01-24T00:12:41.088Z,55.90
2019-01-24T00:15:08.644Z,51.60
2019-01-24T00:17:36.225Z,52.97
2019-01-24T00:20:04.552Z,53.93
2019-01-24T00:22:32.112Z,55.47
2019-01-24T00:24:59.700Z,56.20
2019-01-24T00:27:27.252Z,54.20
2019-01-24T00:29:54.824Z,53.63
2019-01-24T00:32:23.140Z,53.40
2019-01-24T00:34:50.721Z,53.77
2019-01-24T00:37:18.267Z,51.70
2019-01-24T00:39:45.815Z,58.43
2019-01-24T00:42:13.388Z,53.17
2019-01-24T00:44:40.933Z,58.40
2019-01-24T00:47:08.515Z,57.67
2019-01-24T00:49:36.071Z,54.90
2019-01-24T00:52:03.650Z,54.27
2019-01-24T00:54:31.196Z,55.07
2019-01-24T00:56:58.825Z,57.40
2019-01-24T00:59:26.406Z,60.93
2019-01-24T01:01:53.964Z,56.53
2019-01-24T01:04:21.540Z,53.77
2019-01-24T01:06:49.089Z,49.33
2019-01-24T01:09:16.666Z,49.67
2019-01-24T01:11:44.219Z,50.73
2019-01-24T01:14:11.800Z,49.87
2019-01-24T01:16:39.379Z,50.60
2019-01-24T01:19:06.950Z,48.67
2019-01-24T01:21:34.531Z,53.63
2019-01-24T01:24:02.077Z,51.90
2019-01-24T01:26:29.623Z,51.33
2019-01-24T01:28:58.206Z,52.23
2019-01-24T01:31:25.781Z,53.83
2019-01-24T01:33:53.333Z,51.23
2019-01-24T01:36:20.876Z,52.90
2019-01-24T01:38:48.465Z,54.07
2019-01-24T01:41:16.827Z,51.00
2019-01-24T01:43:44.407Z,53.93
2019-01-24T01:46:11.949Z,52.93
2019-01-24T01:48:39.521Z,50.20
2019-01-24T01:51:07.842Z,52.23
2019-01-24T01:53:35.420Z,51.70
2019-01-24T01:56:02.979Z,51.00
2019-01-24T01:58:30.527Z,50.97
2019-01-24T02:00:58.104Z,54.60
2019-01-24T02:03:25.672Z,51.57
2019-01-24T02:05:53.257Z,50.13
2019-01-24T02:08:20.804Z,51.27
2019-01-24T02:10:48.386Z,51.97
2019-01-24T02:13:15.927Z,50.00
2019-01-24T02:15:44.525Z,49.97
2019-01-24T02:18:12.078Z,49.43
2019-01-24T02:20:39.628Z,49.20
2019-01-24T02:23:07.205Z,53.33
2019-01-24T02:25:34.755Z,49.57
2019-01-24T02:28:03.212Z,52.37
2019-01-24T02:30:30.771Z,52.27
2019-01-24T02:32:58.357Z,50.10
2019-01-24T02:35:25.932Z,50.63
2019-01-24T02:37:53.493Z,50.83
2019-01-24T02:40:21.078Z,49.80
2019-01-24T02:42:48.632Z,51.00
2019-01-24T02:45:17.855Z,49.63
2019-01-24T02:47:45.415Z,50.40
2019-01-24T02:50:12.977Z,50.50
2019-01-24T02:52:40.565Z,51.27
2019-01-24T02:55:08.127Z,50.60
2019-01-24T02:57:35.699Z,50.83
2019-01-24T03:00:03.264Z,55.07
2019-01-24T03:02:30.850Z,53.40
2019-01-24T03:04:59.166Z,54.23
2019-01-24T03:07:26.712Z,50.60
2019-01-24T03:09:54.293Z,54.37
2019-01-24T03:12:21.843Z,50.17
2019-01-24T03:14:49.420Z,52.30
2019-01-24T03:17:16.987Z,101.77
2019-01-24T03:19:44.563Z,54.73
2019-01-24T03:22:12.115Z,52.73
2019-01-24T03:24:39.692Z,53.97
2019-01-24T03:27:07.244Z,56.40
2019-01-24T03:29:35.596Z,55.70
2019-01-24T03:32:03.154Z,55.20
2019-01-24T03:34:30.712Z,53.50
2019-01-24T03:36:58.303Z,50.67
2019-01-24T03:39:25.857Z,52.40
2019-01-24T03:41:53.553Z,54.70
2019-01-24T03:44:21.110Z,54.30
2019-01-24T03:46:48.692Z,53.60
2019-01-24T03:49:16.239Z,51.17
2019-01-24T03:51:43.795Z,52.53
2019-01-24T03:54:11.372Z,52.50
2019-01-24T03:56:38.920Z,51.77
2019-01-24T03:59:06.503Z,51.53
2019-01-24T04:01:34.063Z,51.77
2019-01-24T04:04:01.644Z,50.57
2019-01-24T04:06:29.188Z,49.00
2019-01-24T04:08:56.734Z,51.60
2019-01-24T04:11:25.076Z,50.00
2019-01-24T04:13:52.619Z,54.27
2019-01-24T04:16:20.199Z,52.13
2019-01-24T04:18:47.768Z,54.87
2019-01-24T04:21:15.311Z,56.53
2019-01-24T04:23:42.888Z,70.37
2019-01-24T04:26:10.454Z,60.93
2019-01-24T04:28:38.801Z,59.50
2019-01-24T04:31:06.352Z,57.10
2019-01-24T04:33:33.934Z,56.60
2019-01-24T04:36:01.483Z,56.10
2019-01-24T04:38:29.059Z,53.90
2019-01-24T04:40:56.633Z,53.97
2019-01-24T04:43:24.184Z,54.80
2019-01-24T04:45:52.525Z,54.90
2019-01-24T04:48:20.086Z,55.80
2019-01-24T04:50:47.668Z,56.93
2019-01-24T04:53:16.143Z,57.63
2019-01-24T04:55:43.698Z,54.87
2019-01-24T04:58:11.279Z,56.47
2019-01-24T05:00:38.827Z,56.33
2019-01-24T05:03:07.170Z,56.60
2019-01-24T05:05:34.724Z,60.40
2019-01-24T05:08:02.309Z,56.83
2019-01-24T05:10:29.872Z,57.70
2019-01-24T05:12:58.268Z,56.17
2019-01-24T05:15:25.844Z,58.47
2019-01-24T05:17:53.389Z,58.60
2019-01-24T05:20:20.977Z,60.40
2019-01-24T05:22:48.528Z,59.90
2019-01-24T05:25:16.118Z,62.00
2019-01-24T05:27:43.681Z,57.97
2019-01-24T05:30:12.047Z,59.87
2019-01-24T05:32:39.629Z,57.30
2019-01-24T05:35:07.227Z,54.20
2019-01-24T05:37:34.791Z,55.23
2019-01-24T05:40:02.345Z,54.53
2019-01-24T05:42:29.916Z,54.60
2019-01-24T05:44:57.468Z,56.00
2019-01-24T05:47:25.052Z,54.90
2019-01-24T05:49:52.605Z,57.20
2019-01-24T05:52:20.159Z,60.23
2019-01-24T05:54:47.740Z,57.83
2019-01-24T05:57:15.319Z,56.27
2019-01-24T05:59:42.900Z,57.10
2019-01-24T06:02:10.448Z,57.40
2019-01-24T06:04:38.006Z,61.00
2019-01-24T06:07:05.582Z,57.67
2019-01-24T06:09:33.134Z,58.70
2019-01-24T06:12:00.709Z,61.57
2019-01-24T06:14:28.292Z,57.20
2019-01-24T06:16:55.853Z,58.40
2019-01-24T06:19:23.428Z,54.97
2019-01-24T06:21:50.977Z,57.13
2019-01-24T06:24:19.291Z,58.93
2019-01-24T06:26:46.875Z,57.57
2019-01-24T06:29:14.621Z,56.53
2019-01-24T06:31:42.210Z,59.80
2019-01-24T06:34:09.760Z,56.07
2019-01-24T06:36:37.342Z,59.57
2019-01-24T06:39:04.919Z,56.23
2019-01-24T06:41:32.467Z,56.80
2019-01-24T06:44:00.809Z,56.37
2019-01-24T06:46:28.649Z,54.87
2019-01-24T06:48:56.228Z,54.30
2019-01-24T06:51:23.780Z,55.57
2019-01-24T06:53:51.360Z,56.03
2019-01-24T06:56:18.907Z,55.60
2019-01-24T06:58:46.484Z,53.17
2019-01-24T07:01:14.031Z,55.57
2019-01-24T07:03:41.608Z,57.07
2019-01-24T07:06:09.155Z,57.67
2019-01-24T07:08:36.701Z,58.93
2019-01-24T07:11:04.279Z,55.73
2019-01-24T07:13:31.835Z,58.33
2019-01-24T07:15:59.412Z,56.80
2019-01-24T07:18:26.975Z,53.23
2019-01-24T07:20:54.529Z,57.17
2019-01-24T07:23:22.225Z,55.50
2019-01-24T07:25:50.728Z,53.30
2019-01-24T07:28:19.091Z,54.40
2019-01-24T07:30:46.652Z,55.73
2019-01-24T07:33:15.213Z,54.67
2019-01-24T07:35:42.768Z,53.03
2019-01-24T07:38:10.345Z,54.90
2019-01-24T07:40:37.888Z,54.07
2019-01-24T07:43:05.440Z,54.23
2019-01-24T07:45:33.021Z,52.97
2019-01-24T07:48:00.572Z,54.67
2019-01-24T07:50:28.151Z,54.63
2019-01-24T07:52:55.713Z,57.43
2019-01-24T07:55:23.297Z,55.60
2019-01-24T07:57:50.855Z,56.30
2019-01-24T08:00:19.747Z,55.50
2019-01-24T08:02:46.964Z,56.50
2019-01-24T08:05:14.564Z,55.43
2019-01-24T08:07:42.145Z,53.07
2019-01-24T08:10:11.269Z,56.50
2019-01-24T08:12:38.832Z,55.37
2019-01-24T08:15:06.412Z,53.23
2019-01-24T08:17:33.984Z,52.03
2019-01-24T08:20:01.562Z,55.30
2019-01-24T08:22:29.116Z,51.57
2019-01-24T08:24:56.701Z,54.70
2019-01-24T08:27:24.261Z,50.23
2019-01-24T08:29:51.844Z,52.97
2019-01-24T08:32:19.401Z,54.90
2019-01-24T08:34:47.964Z,53.80
2019-01-24T08:37:15.511Z,54.17
2019-01-24T08:39:43.270Z,52.97
2019-01-24T08:42:10.828Z,56.77
2019-01-24T08:44:38.379Z,54.70
2019-01-24T08:47:05.959Z,54.57
2019-01-24T08:49:33.512Z,52.53
2019-01-24T08:52:01.088Z,50.07
2019-01-24T08:54:28.649Z,51.00
2019-01-24T08:56:57.003Z,52.90
2019-01-24T08:59:29.442Z,52.50
2019-01-24T09:01:52.182Z,52.60
2019-01-24T09:04:19.757Z,53.67
2019-01-24T09:06:47.309Z,52.10
2019-01-24T09:09:15.881Z,49.23
2019-01-24T09:11:43.432Z,51.43
2019-01-24T09:14:11.017Z,53.20
2019-01-24T09:16:39.336Z,50.53
2019-01-24T09:19:07.675Z,52.40
2019-01-24T09:21:35.226Z,53.23
2019-01-24T09:24:02.777Z,49.10
2019-01-24T09:26:31.613Z,45.47
2019-01-24T09:28:58.708Z,44.73
2019-01-24T09:31:26.283Z,44.20
2019-01-24T09:33:53.828Z,44.97
2019-01-24T09:36:21.404Z,41.53
2019-01-24T09:38:48.955Z,46.93
2019-01-24T09:41:16.503Z,43.00
2019-01-24T09:43:44.075Z,45.60
2019-01-24T09:46:11.615Z,43.20
2019-01-24T09:48:39.193Z,45.33
2019-01-24T09:51:06.744Z,48.60
2019-01-24T09:53:34.319Z,48.33
2019-01-24T09:56:01.868Z,47.67
2019-01-24T09:58:29.420Z,53.30
2019-01-24T10:00:57.004Z,55.35
2019-01-24T10:03:24.560Z,55.53
2019-01-24T10:05:52.144Z,60.33
2019-01-24T10:08:19.692Z,50.77
2019-01-24T10:10:47.240Z,51.83
2019-01-24T10:13:14.815Z,51.00
2019-01-24T10:15:42.388Z,54.37
2019-01-24T10:18:10.961Z,46.03
2019-01-24T10:20:38.516Z,50.87
2019-01-24T10:23:06.067Z,49.47
2019-01-24T10:25:33.652Z,52.13
2019-01-24T10:28:01.203Z,52.87
2019-01-24T10:30:28.773Z,50.70
2019-01-24T10:32:56.630Z,43.70
2019-01-24T10:35:24.178Z,45.93
2019-01-24T10:37:51.786Z,43.70
2019-01-24T10:40:20.157Z,53.40
2019-01-24T10:42:47.718Z,53.37
2019-01-24T10:45:15.314Z,52.33
2019-01-24T10:47:42.861Z,43.53
2019-01-24T10:50:10.448Z,44.80
2019-01-24T10:52:37.991Z,42.57
2019-01-24T10:55:05.540Z,42.97
2019-01-24T10:57:33.120Z,46.43
2019-01-24T11:00:00.673Z,45.50
2019-01-24T11:02:28.445Z,45.60
2019-01-24T11:04:56.020Z,47.57
2019-01-24T11:07:23.567Z,44.40
2019-01-24T11:09:51.114Z,47.37
2019-01-24T11:12:18.683Z,48.43
2019-01-24T11:14:46.236Z,46.27
2019-01-24T11:17:13.808Z,46.13
2019-01-24T11:19:41.354Z,47.93
2019-01-24T11:22:08.932Z,47.63
2019-01-24T11:24:36.480Z,47.27
2019-01-24T11:27:04.064Z,47.03
2019-01-24T11:29:31.612Z,45.60
2019-01-24T11:31:59.923Z,48.20
2019-01-24T11:34:27.498Z,47.40
2019-01-24T11:36:57.159Z,44.13
2019-01-24T11:39:22.667Z,45.03
2019-01-24T11:41:50.208Z,45.00
2019-01-24T11:44:17.781Z,47.17
2019-01-24T11:46:45.323Z,45.67
2019-01-24T11:49:12.901Z,45.87
2019-01-24T11:51:41.243Z,44.17
2019-01-24T11:54:08.796Z,46.87
2019-01-24T11:56:36.363Z,43.87
2019-01-24T11:59:03.909Z,43.13
2019-01-24T12:01:31.487Z,43.70
2019-01-24T12:03:59.045Z,43.90
2019-01-24T12:06:26.615Z,45.20
2019-01-24T12:08:54.169Z,44.23
2019-01-24T12:11:21.743Z,43.47
2019-01-24T12:13:49.316Z,43.37
2019-01-24T12:16:17.630Z,41.60
2019-01-24T12:18:45.208Z,43.83
2019-01-24T12:21:12.764Z,43.83
2019-01-24T12:23:40.353Z,42.20
2019-01-24T12:26:08.659Z,40.20
2019-01-24T12:28:36.510Z,40.33
2019-01-24T12:31:04.205Z,40.80
2019-01-24T12:33:31.749Z,38.80
2019-01-24T12:35:59.335Z,40.20
2019-01-24T12:38:26.880Z,39.07
2019-01-24T12:40:54.429Z,40.37
2019-01-24T12:43:22.006Z,38.57
2019-01-24T12:45:49.579Z,37.77
2019-01-24T12:48:17.156Z,37.23
2019-01-24T12:50:44.701Z,39.07
2019-01-24T12:53:12.275Z,38.77
2019-01-24T12:55:40.588Z,35.40
2019-01-24T12:58:08.172Z,37.80
2019-01-24T13:00:35.752Z,38.63
2019-01-24T13:03:03.314Z,37.57
2019-01-24T13:05:31.633Z,35.10
2019-01-24T13:07:59.204Z,36.63
2019-01-24T13:10:26.752Z,35.17
2019-01-24T13:12:54.331Z,36.20
2019-01-24T13:15:30.144Z,40.17
2019-01-24T13:17:57.717Z,36.07
2019-01-24T13:20:26.287Z,36.50
2019-01-24T13:22:53.834Z,37.40
2019-01-24T13:25:23.976Z,36.77
2019-01-24T13:27:51.525Z,37.30
2019-01-24T13:30:20.115Z,35.60
2019-01-24T13:32:47.664Z,35.70
2019-01-24T13:35:15.216Z,42.40
2019-01-24T13:37:42.795Z,35.93
2019-01-24T13:40:12.230Z,35.57
2019-01-24T13:42:39.804Z,34.97
2019-01-24T13:45:09.930Z,38.50
2019-01-24T13:47:37.518Z,35.07
2019-01-24T13:50:06.056Z,35.53
2019-01-24T13:52:33.632Z,32.57
2019-01-24T13:55:01.973Z,34.07
2019-01-24T13:57:29.544Z,32.43
2019-01-24T13:59:57.124Z,30.73
2019-01-24T14:02:24.673Z,32.90
2019-01-24T14:04:53.004Z,30.73
2019-01-24T14:07:20.557Z,32.43
2019-01-24T14:09:48.104Z,33.70
2019-01-24T14:12:15.676Z,34.30
2019-01-24T14:14:43.236Z,35.70
2019-01-24T14:17:10.823Z,34.07
2019-01-24T14:19:39.076Z,33.27
2019-01-24T14:22:06.644Z,32.53
2019-01-24T14:24:34.183Z,31.70
2019-01-24T14:27:01.752Z,31.17
2019-01-24T14:29:29.299Z,30.77
2019-01-24T14:34:30.707Z,27.93
2019-01-24T14:36:58.253Z,31.47
2019-01-24T14:39:26.589Z,28.73
2019-01-24T14:41:54.142Z,25.83
2019-01-24T14:44:21.796Z,30.03
2019-01-24T14:46:49.364Z,28.67
2019-01-24T14:49:16.912Z,29.20
2019-01-24T14:51:45.424Z,30.17
2019-01-24T14:54:13.000Z,31.47
2019-01-24T14:56:40.545Z,31.13
2019-01-24T14:59:08.121Z,30.53
2019-01-24T15:01:36.464Z,31.77
2019-01-24T15:04:04.020Z,60.70
2019-01-24T15:06:31.598Z,32.40
2019-01-24T15:08:59.163Z,34.97
2019-01-24T15:11:27.481Z,34.23
2019-01-24T15:13:56.050Z,32.90
2019-01-24T15:16:23.595Z,36.10
2019-01-24T15:18:52.158Z,34.30
2019-01-24T15:21:19.704Z,34.90
2019-01-24T15:23:47.300Z,31.70
2019-01-24T15:26:14.859Z,31.77
2019-01-24T15:28:42.413Z,35.90
2019-01-24T15:31:09.994Z,34.37
2019-01-24T15:33:37.543Z,34.40
2019-01-24T15:36:05.127Z,30.87
2019-01-24T15:38:32.700Z,31.23
2019-01-24T15:41:00.281Z,31.87
2019-01-24T15:43:27.851Z,32.57
2019-01-24T15:45:55.399Z,33.27
2019-01-24T15:48:23.944Z,34.40
2019-01-24T15:50:51.492Z,32.90
2019-01-24T15:53:19.066Z,30.93
2019-01-24T15:55:46.641Z,31.80
2019-01-24T15:58:15.948Z,33.60
2019-01-24T16:00:44.276Z,33.60
2019-01-24T16:03:11.870Z,35.63
2019-01-24T16:05:39.419Z,36.10
2019-01-24T16:08:06.996Z,34.17
2019-01-24T16:10:35.305Z,33.07
2019-01-24T16:13:02.852Z,32.83
2019-01-24T16:15:30.447Z,31.63
2019-01-24T16:17:58.000Z,34.00
2019-01-24T16:20:25.599Z,31.93
2019-01-24T16:22:53.162Z,33.17
2019-01-24T16:25:20.711Z,33.67
2019-01-24T16:27:49.058Z,35.33
2019-01-24T16:30:17.416Z,38.90
2019-01-24T16:32:45.259Z,38.33
2019-01-24T16:35:12.916Z,33.80
2019-01-24T16:37:40.488Z,41.43
2019-01-24T16:40:08.167Z,36.70
2019-01-24T16:42:36.729Z,33.30
2019-01-24T16:45:04.330Z,33.73
2019-01-24T16:47:31.893Z,32.77
2019-01-24T16:49:59.489Z,33.77
2019-01-24T16:52:27.072Z,34.60
2019-01-24T16:54:54.831Z,37.20
2019-01-24T16:57:22.476Z,35.20
2019-01-24T16:59:50.034Z,32.07
2019-01-24T17:02:18.909Z,35.77
2019-01-24T17:04:45.292Z,35.57
2019-01-24T17:07:12.932Z,31.50
2019-01-24T17:09:40.477Z,33.07
2019-01-24T17:12:08.052Z,36.13
2019-01-24T17:14:35.628Z,35.20
2019-01-24T17:17:03.205Z,35.10
2019-01-24T17:19:30.762Z,37.87
2019-01-24T17:21:58.340Z,52.07
2019-01-24T17:24:25.892Z,34.33
2019-01-24T17:26:53.444Z,38.07
2019-01-24T17:29:22.004Z,35.80
2019-01-24T17:31:49.726Z,37.60
2019-01-24T17:34:17.308Z,36.70
2019-01-24T17:36:44.864Z,40.70
2019-01-24T17:39:12.440Z,39.60
2019-01-24T17:41:39.992Z,36.60
2019-01-24T17:44:07.576Z,42.37
2019-01-24T17:46:35.922Z,51.67
2019-01-24T17:49:03.504Z,38.17
2019-01-24T17:51:31.054Z,37.37
2019-01-24T17:53:58.601Z,36.87
2019-01-24T17:56:26.176Z,40.40
2019-01-24T17:58:53.733Z,40.33
2019-01-24T18:01:21.589Z,60.17
2019-01-24T18:03:50.019Z,55.10
2019-01-24T18:06:17.651Z,48.43
2019-01-24T18:08:45.218Z,37.30
2019-01-24T18:11:12.763Z,35.03
2019-01-24T18:13:40.352Z,36.00
2019-01-24T18:16:07.935Z,32.80
2019-01-24T18:18:35.521Z,35.30
2019-01-24T18:21:03.081Z,37.07
2019-01-24T18:23:31.392Z,36.90
2019-01-24T18:25:58.960Z,36.60
2019-01-24T18:28:26.504Z,35.97
2019-01-24T18:30:54.082Z,37.17
2019-01-24T18:33:21.659Z,37.30
2019-01-24T18:35:49.208Z,40.33
2019-01-24T18:38:16.751Z,40.00
2019-01-24T18:40:44.321Z,43.77
2019-01-24T18:43:11.876Z,42.60
2019-01-24T18:45:39.443Z,45.40
2019-01-24T18:48:07.108Z,41.90
2019-01-24T18:50:34.658Z,42.80
2019-01-24T18:53:02.237Z,43.23
2019-01-24T18:55:29.779Z,46.23
2019-01-24T18:57:57.357Z,47.53
2019-01-24T19:00:26.155Z,46.50
2019-01-24T19:02:54.044Z,48.97
2019-01-24T19:05:21.627Z,50.57
2019-01-24T19:07:49.211Z,47.50
2019-01-24T19:10:16.781Z,49.07
2019-01-24T19:12:44.359Z,49.93
2019-01-24T19:15:13.732Z,49.50
2019-01-24T19:17:41.313Z,49.10
2019-01-24T19:20:09.635Z,50.77
2019-01-24T19:22:37.180Z,47.50
2019-01-24T19:25:04.755Z,42.40
2019-01-24T19:27:32.304Z,44.30
2019-01-24T19:29:59.880Z,40.87
2019-01-24T19:32:27.428Z,43.40
2019-01-24T19:34:54.996Z,41.40
2019-01-24T19:37:22.716Z,39.50
2019-01-24T19:39:50.288Z,39.50
2019-01-24T19:42:17.841Z,40.83
2019-01-24T19:44:46.385Z,42.37
2019-01-24T19:47:14.705Z,43.67
2019-01-24T19:49:43.176Z,40.47
2019-01-24T19:52:10.752Z,39.20
2019-01-24T19:54:39.163Z,40.33
2019-01-24T19:57:06.765Z,41.25
2019-01-24T19:59:34.310Z,42.23
2019-01-24T20:02:01.884Z,42.47
2019-01-24T20:04:29.441Z,39.53
2019-01-24T20:06:57.513Z,41.03
2019-01-24T20:09:25.119Z,40.83
2019-01-24T20:11:52.672Z,41.87
2019-01-24T20:14:20.257Z,42.20
2019-01-24T20:16:47.803Z,40.67
2019-01-24T20:19:15.368Z,46.07
2019-01-24T20:21:43.682Z,53.07
2019-01-24T20:24:11.265Z,50.27
2019-01-24T20:26:38.996Z,48.50
2019-01-24T20:29:07.595Z,49.00
2019-01-24T20:31:35.174Z,57.77
2019-01-24T20:34:02.726Z,46.57
2019-01-24T20:36:32.128Z,46.37
2019-01-24T20:38:59.724Z,45.07
2019-01-24T20:41:27.304Z,43.80
2019-01-24T20:43:54.879Z,46.30
2019-01-24T20:46:22.617Z,46.20
2019-01-24T20:48:50.394Z,47.00
2019-01-24T20:51:19.076Z,45.13
2019-01-24T20:53:46.690Z,44.30
2019-01-24T20:56:14.268Z,44.20
2019-01-24T20:58:41.839Z,42.50
2019-01-24T21:01:09.403Z,44.00
2019-01-24T21:03:37.954Z,39.70
2019-01-24T21:06:05.499Z,42.10
2019-01-24T21:08:33.049Z,41.77
2019-01-24T21:11:00.627Z,45.37
2019-01-24T21:13:28.176Z,42.80
2019-01-24T21:15:55.748Z,42.63
2019-01-24T21:18:23.295Z,44.23
2019-01-24T21:20:50.875Z,41.93
2019-01-24T21:23:18.452Z,40.43
2019-01-24T21:25:46.008Z,41.87
2019-01-24T21:28:13.584Z,42.20
2019-01-24T21:30:41.129Z,44.87
2019-01-24T21:33:08.701Z,44.17
2019-01-24T21:35:36.271Z,42.80
2019-01-24T21:38:03.844Z,42.67
2019-01-24T21:40:31.408Z,40.33
2019-01-24T21:42:58.958Z,42.57
2019-01-24T21:45:31.268Z,40.43
2019-01-24T21:47:58.829Z,42.83
2019-01-24T21:50:27.213Z,42.80
2019-01-24T21:52:54.938Z,39.93
2019-01-24T21:55:23.251Z,39.60
2019-01-24T21:57:50.825Z,40.40
2019-01-24T22:00:18.445Z,38.67
2019-01-24T22:02:46.043Z,41.90
2019-01-24T22:05:13.590Z,43.50
2019-01-24T22:07:41.132Z,41.00
2019-01-24T22:10:08.702Z,41.40
2019-01-24T22:12:36.296Z,39.77
2019-01-24T22:15:04.511Z,38.07
2019-01-24T22:17:34.357Z,38.07
2019-01-24T22:20:04.156Z,38.83
2019-01-24T22:22:34.415Z,40.00
2019-01-24T22:25:05.617Z,39.57
2019-01-24T22:27:38.119Z,38.20
2019-01-24T22:30:14.117Z,38.70
2019-01-24T22:32:43.265Z,40.37
2019-01-24T22:35:11.200Z,39.90
2019-01-24T22:37:38.823Z,37.70
2019-01-24T22:40:06.541Z,38.00
2019-01-24T22:42:35.078Z,40.03
2019-01-24T22:45:03.379Z,40.13
2019-01-24T22:47:32.776Z,39.80
2019-01-24T22:50:01.545Z,40.80
2019-01-24T22:52:30.189Z,40.40
2019-01-24T22:54:59.657Z,41.07
2019-01-24T22:57:27.758Z,39.70
2019-01-24T22:59:55.425Z,40.00
2019-01-24T23:02:24.903Z,42.30
2019-01-24T23:04:53.408Z,40.53
2019-01-24T23:07:21.585Z,38.23
2019-01-24T23:09:50.254Z,39.30
2019-01-24T23:12:18.543Z,37.40
2019-01-24T23:14:47.681Z,36.87
2019-01-24T23:17:16.162Z,36.67
2019-01-24T23:19:44.033Z,39.83
2019-01-24T23:22:12.157Z,39.73
2019-01-24T23:24:40.526Z,39.30
2019-01-24T23:27:09.164Z,41.23
2019-01-24T23:29:37.020Z,38.63
2019-01-24T23:32:05.500Z,42.77
2019-01-24T23:34:34.080Z,40.50
2019-01-24T23:37:02.114Z,39.10
2019-01-24T23:39:30.662Z,39.70
2019-01-24T23:41:58.567Z,42.70
2019-01-24T23:44:27.211Z,40.97
2019-01-24T23:46:57.109Z,42.80
2019-01-24T23:49:25.228Z,41.77
2019-01-24T23:51:53.637Z,40.37
2019-01-24T23:54:22.935Z,44.57
2019-01-24T23:56:51.548Z,41.67
2019-01-24T23:59:19.100Z,39.67
